createdAt,value
2023-05-07T00:00:57.508Z,100517.16
2023-05-07T00:02:29.370Z,100522.53
2023-05-07T00:04:01.373Z,100522.66
2023-05-07T00:05:33.474Z,100535.25
2023-05-07T00:07:05.588Z,100528.13
2023-05-07T00:08:37.377Z,100530.81
2023-05-07T00:10:10.007Z,100529.88
2023-05-07T00:11:42.012Z,100530.75
2023-05-07T00:13:13.858Z,100529.88
2023-05-07T00:14:46.669Z,100529.88
2023-05-07T00:16:18.620Z,100523.66
2023-05-07T00:17:50.509Z,100525.44
2023-05-07T00:19:22.360Z,100521.06
2023-05-07T00:20:54.219Z,100521.06
2023-05-07T00:22:26.134Z,100526.44
2023-05-07T00:23:57.903Z,100521.06
2023-05-07T00:25:29.753Z,100524.72
2023-05-07T00:27:01.534Z,100523.75
2023-05-07T00:28:34.076Z,100527.19
2023-05-07T00:30:06.731Z,100524.59
2023-05-07T00:31:39.779Z,100531.59
2023-05-07T00:33:11.954Z,100525.44
2023-05-07T00:34:44.521Z,100528.13
2023-05-07T00:36:16.336Z,100534.50
2023-05-07T00:37:49.603Z,100531.81
2023-05-07T00:39:21.545Z,100529.25
2023-05-07T00:40:53.914Z,100532.03
2023-05-07T00:42:25.738Z,100523.19
2023-05-07T00:43:57.917Z,100527.84
2023-05-07T00:45:29.966Z,100525.16
2023-05-07T00:47:04.456Z,100521.69
2023-05-07T00:48:36.328Z,100517.31
2023-05-07T00:50:10.030Z,100515.47
2023-05-07T00:51:42.061Z,100514.72
2023-05-07T00:53:14.364Z,100516.53
2023-05-07T00:54:46.401Z,100523.66
2023-05-07T00:56:18.383Z,100516.53
2023-05-07T00:57:51.407Z,100528.28
2023-05-07T00:59:23.555Z,100526.56
2023-05-07T01:00:55.755Z,100527.28
2023-05-07T01:02:28.035Z,100520.22
2023-05-07T01:03:59.932Z,100518.28
2023-05-07T01:05:32.316Z,100513.84
2023-05-07T01:07:05.046Z,100518.28
2023-05-07T01:08:37.630Z,100523.66
2023-05-07T01:10:11.913Z,100524.50
2023-05-07T01:11:45.010Z,100511.16
2023-05-07T01:13:17.422Z,100518.28
2023-05-07T01:14:50.968Z,100525.38
2023-05-07T01:16:23.167Z,100517.31
2023-05-07T01:17:57.984Z,100523.53
2023-05-07T01:19:36.489Z,100523.44
2023-05-07T01:21:12.051Z,100538.59
2023-05-07T01:22:44.387Z,100525.16
2023-05-07T01:24:17.342Z,100535.06
2023-05-07T01:25:56.115Z,100527.94
2023-05-07T01:27:30.530Z,100526.22
2023-05-07T01:29:02.517Z,100525.38
2023-05-07T01:30:37.108Z,100527.06
2023-05-07T01:32:14.311Z,100536.88
2023-05-07T01:33:47.722Z,100536.00
2023-05-07T01:35:28.098Z,100536.97
2023-05-07T01:37:00.729Z,100529.75
2023-05-07T01:38:32.836Z,100536.88
2023-05-07T01:40:05.968Z,100537.75
2023-05-07T01:41:38.467Z,100540.31
2023-05-07T01:43:10.768Z,100543.97
2023-05-07T01:44:43.248Z,100545.81
2023-05-07T01:46:16.455Z,100546.66
2023-05-07T01:47:48.387Z,100540.44
2023-05-07T01:49:20.874Z,100532.38
2023-05-07T01:50:52.943Z,100541.28
2023-05-07T01:52:26.239Z,100533.22
2023-05-07T01:53:59.172Z,100535.91
2023-05-07T01:55:31.006Z,100528.69
2023-05-07T01:57:04.144Z,100529.56
2023-05-07T01:58:36.023Z,100528.56
2023-05-07T02:00:10.351Z,100526.78
2023-05-07T02:01:48.863Z,100529.34
2023-05-07T02:03:21.137Z,100539.03
2023-05-07T02:05:02.689Z,100539.88
2023-05-07T02:06:34.965Z,100540.72
2023-05-07T02:08:10.052Z,100545.16
2023-05-07T02:09:42.211Z,100544.19
2023-05-07T02:11:14.560Z,100546.88
2023-05-07T02:12:46.697Z,100540.63
2023-05-07T02:14:18.581Z,100543.31
2023-05-07T02:15:51.758Z,100540.63
2023-05-07T02:17:24.168Z,100551.25
2023-05-07T02:18:56.507Z,100554.06
2023-05-07T02:20:28.625Z,100543.31
2023-05-07T02:22:00.533Z,100555.03
2023-05-07T02:23:36.074Z,100558.47
2023-05-07T02:25:08.482Z,100559.34
2023-05-07T02:26:42.097Z,100563.72
2023-05-07T02:28:14.488Z,100563.84
2023-05-07T02:29:59.242Z,100550.28
2023-05-07T02:31:31.286Z,100548.50
2023-05-07T02:33:03.201Z,100549.44
2023-05-07T02:34:35.082Z,100560.94
2023-05-07T02:36:11.053Z,100551.16
2023-05-07T02:38:00.720Z,100552.03
2023-05-07T02:39:32.713Z,100551.16
2023-05-07T02:41:04.715Z,100548.50
2023-05-07T02:42:36.734Z,100552.97
2023-05-07T02:44:08.595Z,100562.78
2023-05-07T02:45:40.808Z,100563.72
2023-05-07T02:47:15.410Z,100549.44
2023-05-07T02:48:48.581Z,100545.88
2023-05-07T02:50:20.449Z,100555.78
2023-05-07T02:51:52.353Z,100543.19
2023-05-07T02:53:28.312Z,100548.56
2023-05-07T02:55:00.131Z,100554.06
2023-05-07T02:56:32.284Z,100555.03
2023-05-07T02:58:04.078Z,100553.09
2023-05-07T02:59:38.813Z,100552.34
2023-05-07T03:01:10.748Z,100545.16
2023-05-07T03:03:02.867Z,100543.53
2023-05-07T03:04:34.958Z,100553.53
2023-05-07T03:06:07.809Z,100551.81
2023-05-07T03:07:39.646Z,100545.59
2023-05-07T03:09:11.968Z,100546.66
2023-05-07T03:10:43.899Z,100544.19
2023-05-07T03:12:15.925Z,100539.78
2023-05-07T03:13:47.926Z,100544.28
2023-05-07T03:15:19.861Z,100542.56
2023-05-07T03:16:51.772Z,100544.50
2023-05-07T03:18:23.784Z,100550.00
2023-05-07T03:19:55.964Z,100550.09
2023-05-07T03:21:28.033Z,100554.59
2023-05-07T03:23:00.098Z,100549.44
2023-05-07T03:24:32.144Z,100563.00
2023-05-07T03:26:04.250Z,100555.06
2023-05-07T03:27:36.072Z,100555.91
2023-05-07T03:29:07.989Z,100553.31
2023-05-07T03:30:39.912Z,100556.84
2023-05-07T03:32:11.712Z,100567.72
2023-05-07T03:33:57.698Z,100566.88
2023-05-07T03:35:29.976Z,100574.94
2023-05-07T03:37:01.845Z,100564.28
2023-05-07T03:38:33.637Z,100561.78
2023-05-07T03:40:07.051Z,100566.44
2023-05-07T03:41:46.737Z,100566.63
2023-05-07T03:43:18.739Z,100560.63
2023-05-07T03:44:55.538Z,100566.84
2023-05-07T03:46:27.663Z,100565.34
2023-05-07T03:48:00.235Z,100573.63
2023-05-07T03:49:32.234Z,100568.44
2023-05-07T03:51:04.520Z,100568.53
2023-05-07T03:52:38.479Z,100576.81
2023-05-07T03:54:12.052Z,100568.09
2023-05-07T03:55:48.148Z,100572.72
2023-05-07T03:57:20.379Z,100571.00
2023-05-07T03:58:52.321Z,100577.38
2023-05-07T04:00:24.814Z,100568.38
2023-05-07T04:01:56.698Z,100576.53
2023-05-07T04:03:30.890Z,100578.47
2023-05-07T04:05:05.137Z,100571.38
2023-05-07T04:06:36.972Z,100571.50
2023-05-07T04:08:08.833Z,100573.41
2023-05-07T04:09:45.412Z,100572.34
2023-05-07T04:11:17.208Z,100567.94
2023-05-07T04:12:49.087Z,100568.69
2023-05-07T04:14:25.481Z,100579.34
2023-05-07T04:15:57.915Z,100577.50
2023-05-07T04:17:30.503Z,100579.34
2023-05-07T04:19:02.347Z,100572.13
2023-05-07T04:20:37.510Z,100580.97
2023-05-07T04:22:13.133Z,100579.03
2023-05-07T04:23:45.281Z,100579.03
2023-05-07T04:25:18.935Z,100581.66
2023-05-07T04:26:52.357Z,100595.72
2023-05-07T04:28:26.965Z,100598.22
2023-05-07T04:29:59.105Z,100599.06
2023-05-07T04:31:31.843Z,100601.53
2023-05-07T04:33:04.641Z,100593.28
2023-05-07T04:34:37.171Z,100602.97
2023-05-07T04:36:09.218Z,100591.97
2023-05-07T04:37:47.994Z,100606.81
2023-05-07T04:39:19.799Z,100604.69
2023-05-07T04:40:54.195Z,100615.22
2023-05-07T04:42:29.385Z,100613.19
2023-05-07T04:44:01.277Z,100613.00
2023-05-07T04:45:36.505Z,100610.94
2023-05-07T04:47:08.317Z,100619.75
2023-05-07T04:48:40.534Z,100613.50
2023-05-07T04:50:13.349Z,100611.59
2023-05-07T04:51:46.467Z,100615.78
2023-05-07T04:53:21.206Z,100621.81
2023-05-07T04:54:53.972Z,100609.22
2023-05-07T04:56:29.309Z,100626.03
2023-05-07T04:58:02.714Z,100632.03
2023-05-07T04:59:36.672Z,100624.72
2023-05-07T05:01:08.526Z,100627.09
2023-05-07T05:02:40.617Z,100625.06
2023-05-07T05:04:13.270Z,100633.84
2023-05-07T05:05:46.246Z,100633.63
2023-05-07T05:07:18.106Z,100627.31
2023-05-07T05:08:49.919Z,100628.81
2023-05-07T05:10:24.634Z,100630.53
2023-05-07T05:11:57.179Z,100630.22
2023-05-07T05:13:29.465Z,100632.56
2023-05-07T05:15:01.320Z,100627.09
2023-05-07T05:16:33.513Z,100629.44
2023-05-07T05:18:05.685Z,100626.75
2023-05-07T05:19:38.172Z,100628.16
2023-05-07T05:21:10.389Z,100629.88
2023-05-07T05:22:43.542Z,100617.91
2023-05-07T05:24:16.837Z,100627.72
2023-05-07T05:25:48.642Z,100624.91
2023-05-07T05:27:21.006Z,100617.69
2023-05-07T05:28:52.855Z,100627.38
2023-05-07T05:30:27.012Z,100632.53
2023-05-07T05:31:59.162Z,100634.16
2023-05-07T05:33:32.361Z,100633.19
2023-05-07T05:35:09.124Z,100641.94
2023-05-07T05:36:41.543Z,100647.94
2023-05-07T05:38:14.687Z,100648.69
2023-05-07T05:39:46.857Z,100645.78
2023-05-07T05:41:19.205Z,100646.66
2023-05-07T05:42:51.024Z,100647.28
2023-05-07T05:44:23.326Z,100652.56
2023-05-07T05:45:56.862Z,100651.38
2023-05-07T05:47:28.785Z,100654.78
2023-05-07T05:49:01.843Z,100650.06
2023-05-07T05:50:33.639Z,100654.13
2023-05-07T05:52:05.574Z,100663.06
2023-05-07T05:53:38.180Z,100660.13
2023-05-07T05:55:11.354Z,100654.75
2023-05-07T05:56:43.915Z,100665.31
2023-05-07T05:58:16.503Z,100666.19
2023-05-07T05:59:54.974Z,100670.59
2023-05-07T06:01:26.912Z,100671.56
2023-05-07T06:03:00.995Z,100674.28
2023-05-07T06:04:33.437Z,100667.91
2023-05-07T06:06:05.503Z,100670.59
2023-05-07T06:07:37.528Z,100672.53
2023-05-07T06:09:09.408Z,100678.78
2023-05-07T06:10:45.905Z,100675.34
2023-05-07T06:12:18.085Z,100670.91
2023-05-07T06:13:49.929Z,100684.50
2023-05-07T06:15:21.988Z,100683.53
2023-05-07T06:16:53.993Z,100686.22
2023-05-07T06:18:26.258Z,100687.06
2023-05-07T06:19:58.139Z,100689.66
2023-05-07T06:21:29.952Z,100687.06
2023-05-07T06:23:01.821Z,100693.34
2023-05-07T06:24:35.330Z,100687.97
2023-05-07T06:26:07.616Z,100683.53
2023-05-07T06:27:44.413Z,100678.91
2023-05-07T06:29:16.254Z,100685.13
2023-05-07T06:30:50.095Z,100683.31
2023-05-07T06:32:23.211Z,100675.22
2023-05-07T06:33:56.601Z,100685.03
2023-05-07T06:35:31.700Z,100687.75
2023-05-07T06:37:03.869Z,100687.47
2023-05-07T06:39:01.561Z,100690.94
2023-05-07T06:40:33.423Z,100689.94
2023-05-07T06:42:06.198Z,100690.72
2023-05-07T06:43:39.242Z,100693.41
2023-05-07T06:45:35.581Z,100696.84
2023-05-07T06:47:07.699Z,100702.13
2023-05-07T06:48:40.761Z,100713.75
2023-05-07T06:50:12.876Z,100708.38
2023-05-07T06:51:45.044Z,100702.88
2023-05-07T06:53:16.913Z,100699.19
2023-05-07T06:54:48.976Z,100704.72
2023-05-07T06:56:24.035Z,100702.13
2023-05-07T06:57:55.922Z,100709.34
2023-05-07T06:59:29.321Z,100705.88
2023-05-07T07:01:01.270Z,100706.88
2023-05-07T07:02:33.203Z,100706.03
2023-05-07T07:04:05.189Z,100706.03
2023-05-07T07:05:37.510Z,100703.19
2023-05-07T07:07:09.572Z,100706.03
2023-05-07T07:08:41.631Z,100703.31
2023-05-07T07:10:13.588Z,100712.25
2023-05-07T07:11:45.531Z,100711.41
2023-05-07T07:13:17.484Z,100709.69
2023-05-07T07:14:49.353Z,100713.34
2023-05-07T07:16:22.576Z,100717.00
2023-05-07T07:17:56.860Z,100707.22
2023-05-07T07:19:29.805Z,100710.78
2023-05-07T07:21:02.538Z,100715.53
2023-05-07T07:22:34.337Z,100720.50
2023-05-07T07:24:06.546Z,100713.34
2023-05-07T07:25:38.397Z,100724.34
2023-05-07T07:27:10.954Z,100723.50
2023-05-07T07:28:48.591Z,100719.19
2023-05-07T07:30:23.908Z,100726.19
2023-05-07T07:31:55.965Z,100720.72
2023-05-07T07:33:28.079Z,100718.97
2023-05-07T07:34:59.987Z,100722.53
2023-05-07T07:36:42.848Z,100716.19
2023-05-07T07:38:17.465Z,100726.72
2023-05-07T07:39:49.438Z,100725.44
2023-05-07T07:41:21.466Z,100728.00
2023-05-07T07:42:54.104Z,100729.72
2023-05-07T07:44:26.677Z,100716.38
2023-05-07T07:46:03.577Z,100729.72
2023-05-07T07:47:37.156Z,100726.06
2023-05-07T07:49:09.064Z,100722.28
2023-05-07T07:50:45.454Z,100733.81
2023-05-07T07:52:20.392Z,100735.50
2023-05-07T07:53:52.277Z,100731.97
2023-05-07T07:55:24.350Z,100737.03
2023-05-07T07:56:58.542Z,100734.13
2023-05-07T07:58:30.648Z,100738.31
2023-05-07T08:00:04.072Z,100732.69
2023-05-07T08:01:37.751Z,100733.44
2023-05-07T08:03:12.923Z,100724.16
2023-05-07T08:04:48.905Z,100727.59
2023-05-07T08:06:20.853Z,100733.75
2023-05-07T08:07:54.301Z,100735.22
2023-05-07T08:09:31.165Z,100748.38
2023-05-07T08:11:06.055Z,100739.53
2023-05-07T08:12:40.657Z,100748.59
2023-05-07T08:14:12.898Z,100756.56
2023-05-07T08:15:44.985Z,100753.88
2023-05-07T08:17:18.186Z,100748.59
2023-05-07T08:18:51.233Z,100757.63
2023-05-07T08:20:23.500Z,100757.63
2023-05-07T08:21:56.358Z,100758.41
2023-05-07T08:23:29.586Z,100762.81
2023-05-07T08:25:02.539Z,100765.94
2023-05-07T08:26:34.569Z,100756.91
2023-05-07T08:28:08.358Z,100770.25
2023-05-07T08:29:42.747Z,100765.63
2023-05-07T08:31:15.170Z,100760.25
2023-05-07T08:32:49.710Z,100761.84
2023-05-07T08:34:23.226Z,100764.41
2023-05-07T08:35:56.637Z,100760.88
2023-05-07T08:37:28.583Z,100758.06
2023-05-07T08:39:01.757Z,100757.19
2023-05-07T08:40:38.959Z,100764.97
2023-05-07T08:42:16.895Z,100752.22
2023-05-07T08:43:53.778Z,100759.44
2023-05-07T08:45:28.615Z,100758.34
2023-05-07T08:47:02.397Z,100758.84
2023-05-07T08:48:36.351Z,100755.22
2023-05-07T08:50:17.018Z,100766.41
2023-05-07T08:51:49.268Z,100758.19
2023-05-07T08:53:22.135Z,100765.09
2023-05-07T08:54:55.276Z,100767.66
2023-05-07T08:56:27.840Z,100762.81
2023-05-07T08:58:01.957Z,100763.47
2023-05-07T08:59:35.778Z,100772.16
2023-05-07T09:01:10.097Z,100770.81
2023-05-07T09:02:42.569Z,100774.28
2023-05-07T09:04:15.979Z,100774.91
2023-05-07T09:05:48.356Z,100778.34
2023-05-07T09:07:23.601Z,100773.59
2023-05-07T09:08:56.279Z,100771.53
2023-05-07T09:10:34.578Z,100767.97
2023-05-07T09:12:07.277Z,100776.91
2023-05-07T09:13:40.622Z,100773.13
2023-05-07T09:15:13.569Z,100783.69
2023-05-07T09:16:47.756Z,100778.91
2023-05-07T09:18:19.900Z,100784.69
2023-05-07T09:19:54.676Z,100787.88
2023-05-07T09:21:26.945Z,100787.66
2023-05-07T09:23:00.603Z,100783.88
2023-05-07T09:24:36.243Z,100787.94
2023-05-07T09:26:12.964Z,100788.69
2023-05-07T09:27:46.706Z,100790.19
2023-05-07T09:29:19.327Z,100791.66
2023-05-07T09:30:51.420Z,100789.94
2023-05-07T09:32:23.505Z,100790.56
2023-05-07T09:33:57.086Z,100790.44
2023-05-07T09:35:31.609Z,100793.25
2023-05-07T09:37:09.290Z,100794.34
2023-05-07T09:38:41.396Z,100788.47
2023-05-07T09:40:23.585Z,100791.50
2023-05-07T09:41:56.374Z,100786.84
2023-05-07T09:43:37.184Z,100786.72
2023-05-07T09:45:11.201Z,100790.19
2023-05-07T09:46:47.921Z,100802.44
2023-05-07T09:48:26.953Z,100788.63
2023-05-07T09:50:01.178Z,100793.50
2023-05-07T09:51:45.894Z,100792.16
2023-05-07T09:53:18.666Z,100795.13
2023-05-07T09:54:51.489Z,100801.25
2023-05-07T09:56:26.595Z,100796.97
2023-05-07T09:58:00.051Z,100795.25
2023-05-07T09:59:34.281Z,100796.09
2023-05-07T10:01:11.880Z,100790.81
2023-05-07T10:02:49.540Z,100792.66
2023-05-07T10:04:23.440Z,100789.94
2023-05-07T10:05:59.421Z,100797.56
2023-05-07T10:07:32.100Z,100792.56
2023-05-07T10:09:09.913Z,100798.34
2023-05-07T10:10:42.416Z,100804.75
2023-05-07T10:12:18.929Z,100795.56
2023-05-07T10:13:51.599Z,100793.22
2023-05-07T10:15:25.018Z,100804.41
2023-05-07T10:17:00.514Z,100804.06
2023-05-07T10:18:34.313Z,100801.97
2023-05-07T10:20:12.738Z,100798.16
2023-05-07T10:22:00.886Z,100803.56
2023-05-07T10:23:35.244Z,100812.53
2023-05-07T10:25:15.509Z,100804.53
2023-05-07T10:26:52.380Z,100802.81
2023-05-07T10:28:27.341Z,100804.53
2023-05-07T10:30:16.064Z,100799.50
2023-05-07T10:31:59.543Z,100804.78
2023-05-07T10:33:33.771Z,100803.06
2023-05-07T10:35:14.871Z,100802.06
2023-05-07T10:36:47.848Z,100799.38
2023-05-07T10:38:20.369Z,100805.16
2023-05-07T10:39:53.618Z,100803.19
2023-05-07T10:41:25.916Z,100803.81
2023-05-07T10:43:03.759Z,100802.56
2023-05-07T10:44:41.422Z,100793.34
2023-05-07T10:46:22.329Z,100794.97
2023-05-07T10:48:29.616Z,100788.81
2023-05-07T10:50:07.700Z,100791.88
2023-05-07T10:51:46.943Z,100789.28
2023-05-07T10:53:28.646Z,100782.88
2023-05-07T10:55:18.799Z,100786.78
2023-05-07T10:56:58.300Z,100790.66
2023-05-07T10:58:35.995Z,100787.94
2023-05-07T11:02:12.331Z,100792.72
2023-05-07T11:04:15.173Z,100790.53
2023-05-07T11:06:12.233Z,100786.91
2023-05-07T11:07:59.684Z,100790.88
2023-05-07T11:09:52.899Z,100793.56
2023-05-07T11:11:54.246Z,100792.16
2023-05-07T11:13:46.822Z,100785.66
2023-05-07T11:15:38.702Z,100791.66
2023-05-07T11:17:16.897Z,100789.81
2023-05-07T11:18:57.930Z,100782.56
2023-05-07T11:20:51.731Z,100783.53
2023-05-07T11:22:56.075Z,100773.59
2023-05-07T11:25:00.280Z,100772.78
2023-05-07T11:26:43.697Z,100771.38
2023-05-07T11:28:16.000Z,100775.84
2023-05-07T11:29:57.994Z,100775.88
2023-05-07T11:31:31.132Z,100774.34
2023-05-07T11:33:06.660Z,100769.06
2023-05-07T11:34:39.545Z,100764.81
2023-05-07T11:36:11.617Z,100772.66
2023-05-07T11:37:49.422Z,100769.97
2023-05-07T11:39:48.041Z,100769.56
2023-05-07T11:41:21.805Z,100770.44
2023-05-07T11:42:53.621Z,100771.16
2023-05-07T11:44:25.539Z,100771.03
2023-05-07T11:46:12.922Z,100767.19
2023-05-07T11:47:45.129Z,100765.72
2023-05-07T11:49:18.273Z,100761.19
2023-05-07T11:51:02.664Z,100775.13
2023-05-07T11:52:35.470Z,100770.31
2023-05-07T11:54:09.881Z,100778.84
2023-05-07T11:55:41.692Z,100768.84
2023-05-07T11:57:16.770Z,100776.25
2023-05-07T11:58:49.353Z,100776.13
2023-05-07T12:00:21.178Z,100772.84
2023-05-07T12:01:53.005Z,100775.41
2023-05-07T12:03:24.845Z,100783.25
2023-05-07T12:04:56.978Z,100782.25
2023-05-07T12:06:28.812Z,100770.81
2023-05-07T12:08:00.614Z,100776.97
2023-05-07T12:09:34.746Z,100776.81
2023-05-07T12:11:13.755Z,100775.13
2023-05-07T12:12:47.751Z,100780.28
2023-05-07T12:14:19.778Z,100782.00
2023-05-07T12:15:56.230Z,100775.59
2023-05-07T12:17:28.110Z,100785.44
2023-05-07T12:19:00.367Z,100776.47
2023-05-07T12:20:32.188Z,100776.31
2023-05-07T12:22:04.907Z,100780.47
2023-05-07T12:23:38.258Z,100784.16
2023-05-07T12:25:10.777Z,100785.75
2023-05-07T12:26:42.883Z,100781.91
2023-05-07T12:28:19.128Z,100789.03
2023-05-07T12:29:51.956Z,100796.88
2023-05-07T12:31:23.895Z,100791.47
2023-05-07T12:32:56.055Z,100785.75
2023-05-07T12:34:29.216Z,100790.44
2023-05-07T12:36:05.101Z,100782.47
2023-05-07T12:37:37.113Z,100792.47
2023-05-07T12:39:10.039Z,100789.03
2023-05-07T12:40:44.418Z,100795.03
2023-05-07T12:42:17.868Z,100789.47
2023-05-07T12:43:49.679Z,100783.75
2023-05-07T12:45:21.645Z,100791.91
2023-05-07T12:46:53.799Z,100785.75
2023-05-07T12:48:28.182Z,100785.19
2023-05-07T12:50:00.603Z,100783.63
2023-05-07T12:51:32.518Z,100780.31
2023-05-07T12:53:09.153Z,100785.47
2023-05-07T12:54:41.096Z,100778.59
2023-05-07T12:56:12.942Z,100773.56
2023-05-07T12:57:49.616Z,100776.44
2023-05-07T12:59:42.791Z,100776.75
2023-05-07T13:01:16.809Z,100778.59
2023-05-07T13:02:48.988Z,100769.25
2023-05-07T13:04:20.974Z,100765.09
2023-05-07T13:05:53.445Z,100773.97
2023-05-07T13:07:26.466Z,100771.66
2023-05-07T13:08:58.309Z,100763.22
2023-05-07T13:10:30.483Z,100765.34
2023-05-07T13:12:02.927Z,100759.91
2023-05-07T13:13:36.388Z,100766.75
2023-05-07T13:15:08.789Z,100763.72
2023-05-07T13:16:40.814Z,100769.41
2023-05-07T13:18:12.833Z,100773.03
2023-05-07T13:19:44.692Z,100765.56
2023-05-07T13:21:16.559Z,100760.66
2023-05-07T13:22:48.419Z,100758.38
2023-05-07T13:24:20.232Z,100754.03
2023-05-07T13:25:53.756Z,100761.59
2023-05-07T13:27:25.622Z,100760.13
2023-05-07T13:28:57.495Z,100751.22
2023-05-07T13:30:29.652Z,100753.91
2023-05-07T13:32:01.534Z,100749.53
2023-05-07T13:33:33.386Z,100754.69
2023-05-07T13:35:05.843Z,100750.81
2023-05-07T13:36:40.725Z,100750.34
2023-05-07T13:38:12.609Z,100749.03
2023-05-07T13:39:44.455Z,100755.88
2023-05-07T13:41:16.443Z,100764.59
2023-05-07T13:42:48.324Z,100755.41
2023-05-07T13:44:20.145Z,100752.53
2023-05-07T13:45:51.997Z,100760.28
2023-05-07T13:47:24.735Z,100753.47
2023-05-07T13:48:57.055Z,100748.31
2023-05-07T13:50:31.016Z,100762.09
2023-05-07T13:52:03.180Z,100753.66
2023-05-07T13:53:35.029Z,100760.53
2023-05-07T13:55:07.520Z,100754.38
2023-05-07T13:56:39.434Z,100754.84
2023-05-07T13:58:11.695Z,100748.16
2023-05-07T13:59:43.751Z,100750.47
2023-05-07T14:01:15.668Z,100753.38
2023-05-07T14:02:47.649Z,100757.97
2023-05-07T14:04:19.557Z,100754.69
2023-05-07T14:05:51.366Z,100759.44
2023-05-07T14:07:23.196Z,100752.59
2023-05-07T14:08:54.986Z,100758.03
2023-05-07T14:10:27.106Z,100759.88
2023-05-07T14:12:00.011Z,100754.59
2023-05-07T14:13:31.999Z,100759.72
2023-05-07T14:15:04.726Z,100759.72
2023-05-07T14:16:36.642Z,100755.44
2023-05-07T14:18:08.492Z,100758.31
2023-05-07T14:19:40.473Z,100758.63
2023-05-07T14:21:12.251Z,100757.59
2023-05-07T14:22:44.065Z,100748.03
2023-05-07T14:24:27.167Z,100748.34
2023-05-07T14:26:06.619Z,100746.94
2023-05-07T14:27:38.587Z,100742.41
2023-05-07T14:29:10.369Z,100746.13
2023-05-07T14:30:42.185Z,100749.84
2023-05-07T14:32:14.006Z,100743.00
2023-05-07T14:33:45.809Z,100745.88
2023-05-07T14:35:18.249Z,100745.44
2023-05-07T14:36:50.488Z,100738.16
2023-05-07T14:38:22.298Z,100738.75
2023-05-07T14:39:54.138Z,100740.47
2023-05-07T14:41:25.990Z,100741.75
2023-05-07T14:42:58.956Z,100745.78
2023-05-07T14:44:31.719Z,100738.78
2023-05-07T14:46:03.738Z,100747.38
2023-05-07T14:47:35.775Z,100737.38
2023-05-07T14:49:07.930Z,100744.25
2023-05-07T14:50:39.833Z,100736.25
2023-05-07T14:52:12.625Z,100739.41
2023-05-07T14:53:44.495Z,100737.69
2023-05-07T14:55:16.382Z,100745.09
2023-05-07T14:56:48.217Z,100747.13
2023-05-07T14:58:20.441Z,100752.69
2023-05-07T14:59:52.256Z,100756.69
2023-05-07T15:01:24.100Z,100751.44
2023-05-07T15:03:06.654Z,100752.69
2023-05-07T15:04:47.081Z,100753.88
2023-05-07T15:06:19.154Z,100749.59
2023-05-07T15:07:51.407Z,100753.16
2023-05-07T15:09:23.440Z,100762.59
2023-05-07T15:10:56.465Z,100757.59
2023-05-07T15:12:28.297Z,100760.47
2023-05-07T15:14:00.149Z,100757.75
2023-05-07T15:15:32.024Z,100769.75
2023-05-07T15:17:03.993Z,100764.03
2023-05-07T15:18:36.044Z,100756.63
2023-05-07T15:20:08.335Z,100756.47
2023-05-07T15:21:40.144Z,100752.34
2023-05-07T15:23:14.124Z,100758.16
2023-05-07T15:24:48.949Z,100756.06
2023-05-07T15:26:21.661Z,100761.59
2023-05-07T15:27:53.599Z,100754.88
2023-05-07T15:29:26.229Z,100755.59
2023-05-07T15:30:58.082Z,100760.31
2023-05-07T15:32:30.207Z,100765.75
2023-05-07T15:34:02.203Z,100764.88
2023-05-07T15:35:34.457Z,100764.19
2023-05-07T15:37:06.546Z,100771.72
2023-05-07T15:38:38.370Z,100772.72
2023-05-07T15:40:10.488Z,100766.84
2023-05-07T15:41:42.362Z,100775.28
2023-05-07T15:43:14.240Z,100766.38
2023-05-07T15:44:46.119Z,100774.81
2023-05-07T15:46:22.301Z,100785.34
2023-05-07T15:47:54.252Z,100785.91
2023-05-07T15:49:26.361Z,100781.88
2023-05-07T15:50:58.257Z,100784.44
2023-05-07T15:52:30.566Z,100783.00
2023-05-07T15:54:02.494Z,100774.41
2023-05-07T15:55:34.910Z,100781.50
2023-05-07T15:57:07.403Z,100785.47
2023-05-07T15:58:41.200Z,100781.06
2023-05-07T16:00:14.462Z,100783.03
2023-05-07T16:01:46.347Z,100779.00
2023-05-07T16:03:19.147Z,100775.59
2023-05-07T16:04:51.327Z,100784.59
2023-05-07T16:06:23.255Z,100789.41
2023-05-07T16:07:55.265Z,100784.28
2023-05-07T16:09:29.129Z,100796.50
2023-05-07T16:11:01.320Z,100786.91
2023-05-07T16:12:33.133Z,100787.31
2023-05-07T16:14:05.017Z,100800.38
2023-05-07T16:15:36.990Z,100789.81
2023-05-07T16:17:09.049Z,100796.34
2023-05-07T16:18:41.191Z,100794.03
2023-05-07T16:20:13.483Z,100790.59
2023-05-07T16:21:45.392Z,100790.88
2023-05-07T16:23:17.280Z,100791.00
2023-05-07T16:24:49.153Z,100789.56
2023-05-07T16:26:21.394Z,100793.38
2023-05-07T16:27:55.013Z,100798.59
2023-05-07T16:29:26.877Z,100794.03
2023-05-07T16:30:58.861Z,100800.09
2023-05-07T16:32:30.765Z,100800.50
2023-05-07T16:34:02.633Z,100801.75
2023-05-07T16:35:34.524Z,100804.00
2023-05-07T16:37:06.921Z,100799.69
2023-05-07T16:38:38.876Z,100802.06
2023-05-07T16:40:11.263Z,100808.97
2023-05-07T16:41:43.871Z,100811.34
2023-05-07T16:43:15.926Z,100810.09
2023-05-07T16:44:47.808Z,100805.31
2023-05-07T16:46:19.706Z,100810.38
2023-05-07T16:47:51.681Z,100811.88
2023-05-07T16:49:23.645Z,100816.53
2023-05-07T16:50:56.173Z,100812.38
2023-05-07T16:52:30.272Z,100804.50
2023-05-07T16:54:02.610Z,100816.31
2023-05-07T16:55:39.043Z,100804.00
2023-05-07T16:57:11.225Z,100803.28
2023-05-07T16:58:43.124Z,100807.00
2023-05-07T17:00:15.486Z,100807.09
2023-05-07T17:01:47.387Z,100802.69
2023-05-07T17:03:19.720Z,100810.91
2023-05-07T17:04:51.741Z,100800.09
2023-05-07T17:06:23.616Z,100810.91
2023-05-07T17:07:56.446Z,100803.53
2023-05-07T17:09:28.412Z,100813.50
2023-05-07T17:11:00.268Z,100814.59
2023-05-07T17:12:32.247Z,100812.75
2023-05-07T17:14:05.605Z,100822.56
2023-05-07T17:15:37.720Z,100826.28
2023-05-07T17:17:09.650Z,100827.25
2023-05-07T17:18:41.520Z,100825.81
2023-05-07T17:20:14.290Z,100825.91
2023-05-07T17:21:46.387Z,100829.84
2023-05-07T17:23:18.512Z,100824.06
2023-05-07T17:24:50.325Z,100829.84
2023-05-07T17:26:22.688Z,100829.34
2023-05-07T17:27:54.538Z,100836.97
2023-05-07T17:29:26.512Z,100849.25
2023-05-07T17:30:58.370Z,100841.38
2023-05-07T17:32:30.364Z,100838.53
2023-05-07T17:34:02.296Z,100848.19
2023-05-07T17:35:34.257Z,100847.78
2023-05-07T17:37:06.093Z,100843.25
2023-05-07T17:38:38.733Z,100840.38
2023-05-07T17:40:10.982Z,100838.28
2023-05-07T17:41:42.991Z,100836.38
2023-05-07T17:43:15.867Z,100832.44
2023-05-07T17:44:47.724Z,100838.66
2023-05-07T17:46:19.595Z,100834.81
2023-05-07T17:47:51.698Z,100837.25
2023-05-07T17:49:23.827Z,100840.50
2023-05-07T17:51:01.913Z,100832.34
2023-05-07T17:52:33.816Z,100831.28
2023-05-07T17:54:05.720Z,100830.75